createdAt,value
2023-05-05T00:04:24.523Z,20.72
2023-05-05T00:09:29.915Z,20.73
2023-05-05T00:14:33.425Z,20.73
2023-05-05T00:19:37.209Z,20.71
2023-05-05T00:24:42.105Z,20.71
2023-05-05T00:29:45.727Z,20.70
2023-05-05T00:34:49.267Z,20.69
2023-05-05T00:39:54.312Z,20.70
2023-05-05T00:44:57.695Z,20.69
2023-05-05T00:50:01.233Z,20.70
2023-05-05T00:55:06.834Z,20.69
2023-05-05T01:00:11.487Z,20.68
2023-05-05T01:05:16.290Z,20.68
2023-05-05T01:10:27.518Z,20.68
2023-05-05T01:15:34.899Z,20.67
2023-05-05T01:20:44.215Z,20.67
2023-05-05T01:26:12.677Z,20.66
2023-05-05T01:31:25.257Z,20.66
2023-05-05T01:36:36.172Z,20.66
2023-05-05T01:41:42.458Z,20.65
2023-05-05T01:46:45.967Z,20.64
2023-05-05T01:51:51.399Z,20.64
2023-05-05T01:56:55.841Z,20.64
2023-05-05T02:02:01.289Z,20.63
2023-05-05T02:07:06.560Z,20.63
2023-05-05T02:12:10.283Z,20.61
2023-05-05T02:17:14.945Z,20.62
2023-05-05T02:22:19.960Z,20.61
2023-05-05T02:27:24.748Z,20.60
2023-05-05T02:32:32.446Z,20.60
2023-05-05T02:37:38.485Z,20.61
2023-05-05T02:42:43.300Z,20.59
2023-05-05T02:47:46.915Z,20.59
2023-05-05T02:52:51.942Z,20.58
2023-05-05T02:58:01.173Z,20.59
2023-05-05T03:03:14.209Z,20.57
2023-05-05T03:08:22.080Z,20.56
2023-05-05T03:13:26.648Z,20.56
2023-05-05T03:18:31.607Z,20.56
2023-05-05T03:23:37.206Z,20.56
2023-05-05T03:28:40.793Z,20.54
2023-05-05T03:33:44.267Z,20.54
2023-05-05T03:38:49.107Z,20.53
2023-05-05T03:43:52.881Z,20.54
2023-05-05T03:48:57.409Z,20.51
2023-05-05T03:54:02.255Z,20.51
2023-05-05T03:59:05.761Z,20.52
2023-05-05T04:04:09.751Z,20.51
2023-05-05T04:09:15.216Z,20.50
2023-05-05T04:14:18.720Z,20.50
2023-05-05T04:19:22.252Z,20.49
2023-05-05T04:24:27.250Z,20.49
2023-05-05T04:29:30.760Z,20.49
2023-05-05T04:34:34.289Z,20.47
2023-05-05T04:39:39.199Z,20.48
2023-05-05T04:44:42.658Z,20.47
2023-05-05T04:49:46.209Z,20.48
2023-05-05T04:54:51.180Z,20.46
2023-05-05T04:59:54.669Z,20.45
2023-05-05T05:04:58.171Z,20.44
2023-05-05T05:10:03.075Z,20.44
2023-05-05T05:15:07.516Z,20.43
2023-05-05T05:20:11.809Z,20.43
2023-05-05T05:25:16.993Z,20.42
2023-05-05T05:30:20.659Z,20.41
2023-05-05T05:35:24.192Z,20.39
2023-05-05T05:40:29.089Z,20.40
2023-05-05T05:45:32.767Z,20.39
2023-05-05T05:50:36.688Z,20.39
2023-05-05T05:55:41.638Z,20.39
2023-05-05T06:00:45.103Z,20.37
2023-05-05T06:05:48.516Z,20.38
2023-05-05T06:10:53.736Z,20.37
2023-05-05T06:15:57.288Z,20.37
2023-05-05T06:21:01.130Z,20.37
2023-05-05T06:26:06.123Z,20.37
2023-05-05T06:31:09.644Z,20.35
2023-05-05T06:36:13.199Z,20.36
2023-05-05T06:41:18.350Z,20.37
2023-05-05T06:46:21.967Z,20.37
2023-05-05T06:51:26.658Z,20.37
2023-05-05T06:56:32.347Z,20.36
2023-05-05T07:01:36.231Z,20.37
2023-05-05T07:06:39.701Z,20.37
2023-05-05T07:11:44.516Z,20.36
2023-05-05T07:16:48.132Z,20.38
2023-05-05T07:21:52.218Z,20.38
2023-05-05T07:26:57.652Z,20.38
2023-05-05T07:32:01.170Z,20.39
2023-05-05T07:37:04.990Z,20.38
2023-05-05T07:42:09.946Z,20.38
2023-05-05T07:47:13.449Z,20.38
2023-05-05T07:52:16.905Z,20.38
2023-05-05T07:57:21.881Z,20.38
2023-05-05T08:02:25.469Z,20.40
2023-05-05T08:07:29.076Z,20.39
2023-05-05T08:12:34.045Z,20.40
2023-05-05T08:17:48.212Z,20.40
2023-05-05T08:22:51.920Z,20.41
2023-05-05T08:27:57.020Z,20.40
2023-05-05T08:33:00.959Z,20.40
2023-05-05T08:38:04.512Z,20.40
2023-05-05T08:43:09.621Z,20.40
2023-05-05T08:48:14.194Z,20.41
2023-05-05T08:53:18.755Z,20.41
2023-05-05T08:58:25.953Z,20.42
2023-05-05T09:03:31.436Z,20.43
2023-05-05T09:08:35.483Z,20.44
2023-05-05T09:13:40.344Z,20.43
2023-05-05T09:18:45.761Z,20.43
2023-05-05T09:24:10.249Z,20.46
2023-05-05T09:29:20.885Z,20.47
2023-05-05T09:34:24.551Z,20.45
2023-05-05T09:39:28.062Z,20.46
2023-05-05T09:44:37.270Z,20.47
2023-05-05T09:49:40.850Z,20.47
2023-05-05T09:54:45.233Z,20.46
2023-05-05T09:59:58.742Z,20.47
2023-05-05T10:05:07.526Z,20.46
2023-05-05T10:10:12.525Z,20.46
2023-05-05T10:15:18.038Z,20.47
2023-05-05T10:20:22.813Z,20.46
2023-05-05T10:25:31.298Z,20.48
2023-05-05T10:35:50.209Z,20.48
2023-05-05T10:40:54.177Z,20.49
2023-05-05T10:45:59.527Z,20.48
2023-05-05T10:51:35.291Z,20.49
2023-05-05T10:56:43.918Z,20.51
2023-05-05T11:01:51.016Z,20.50
2023-05-05T11:07:24.877Z,20.49
2023-05-05T11:12:28.421Z,20.51
2023-05-05T11:17:48.976Z,20.51
2023-05-05T11:23:25.218Z,20.52
2023-05-05T11:28:31.287Z,20.52
2023-05-05T11:33:37.332Z,20.51
2023-05-05T11:38:57.000Z,20.52
2023-05-05T11:44:13.220Z,20.50
2023-05-05T11:49:27.722Z,20.51
2023-05-05T11:54:31.546Z,20.51
2023-05-05T11:59:36.607Z,20.51
2023-05-05T12:04:42.229Z,20.50
2023-05-05T12:09:47.137Z,20.52
2023-05-05T12:14:53.241Z,20.52
2023-05-05T12:19:58.159Z,20.51
2023-05-05T12:25:03.953Z,20.52
2023-05-05T12:30:16.327Z,20.51
2023-05-05T12:35:22.153Z,20.51
2023-05-05T12:40:48.319Z,20.52
2023-05-05T12:46:00.777Z,20.52
2023-05-05T12:51:16.676Z,20.51
2023-05-05T12:56:41.089Z,20.52
2023-05-05T13:01:51.492Z,20.52
2023-05-05T13:07:12.477Z,20.52
2023-05-05T13:12:16.692Z,20.50
2023-05-05T13:17:20.139Z,20.51
2023-05-05T13:22:25.020Z,20.52
2023-05-05T13:27:28.592Z,20.52
2023-05-05T13:32:32.108Z,20.54
2023-05-05T13:37:37.030Z,20.53
2023-05-05T13:42:40.455Z,20.52
2023-05-05T13:47:45.343Z,20.53
2023-05-05T13:52:50.208Z,20.55
2023-05-05T13:57:53.633Z,20.53
2023-05-05T14:02:57.184Z,20.55
2023-05-05T14:08:02.140Z,20.53
2023-05-05T14:13:05.794Z,20.53
2023-05-05T14:18:09.841Z,20.54
2023-05-05T14:23:14.662Z,20.53
2023-05-05T14:28:18.092Z,20.52
2023-05-05T14:33:22.336Z,20.54
2023-05-05T14:38:27.257Z,20.54
2023-05-05T14:43:30.805Z,20.53
2023-05-05T14:48:34.521Z,20.54
2023-05-05T14:53:39.393Z,20.54
2023-05-05T14:58:42.884Z,20.54
2023-05-05T15:03:46.483Z,20.55
2023-05-05T15:08:51.331Z,20.55
2023-05-05T15:13:54.801Z,20.55
2023-05-05T15:18:58.319Z,20.54
2023-05-05T15:24:04.584Z,20.54
2023-05-05T15:29:08.110Z,20.55
2023-05-05T15:34:11.540Z,20.55
2023-05-05T15:39:16.460Z,20.56
2023-05-05T15:44:19.988Z,20.57
2023-05-05T15:49:23.488Z,20.57
2023-05-05T15:54:28.261Z,20.57
2023-05-05T15:59:31.676Z,20.58
2023-05-05T16:04:35.602Z,20.57
2023-05-05T16:09:40.600Z,20.56
2023-05-05T16:14:44.149Z,20.56
2023-05-05T16:19:47.657Z,20.58
2023-05-05T16:24:52.525Z,20.57
2023-05-05T16:29:58.427Z,20.58
2023-05-05T16:35:03.272Z,20.58
2023-05-05T16:40:09.882Z,20.56
2023-05-05T16:45:13.464Z,20.59
2023-05-05T16:50:17.864Z,20.59
2023-05-05T16:55:22.825Z,20.59
2023-05-05T17:00:26.335Z,20.58
2023-05-05T17:05:29.800Z,20.58
2023-05-05T17:10:34.865Z,20.59
2023-05-05T17:15:38.761Z,20.59
2023-05-05T17:20:42.966Z,20.60
2023-05-05T17:25:47.875Z,20.60
2023-05-05T17:30:51.243Z,20.60
2023-05-05T17:35:54.723Z,20.60
2023-05-05T17:40:59.616Z,20.60
2023-05-05T17:46:03.161Z,20.61
2023-05-05T17:51:06.730Z,20.59
2023-05-05T17:56:11.627Z,20.59
2023-05-05T18:01:22.398Z,20.59
2023-05-05T18:06:26.242Z,20.59
2023-05-05T18:11:31.274Z,20.61
2023-05-05T18:16:34.728Z,20.59
2023-05-05T18:21:38.162Z,20.61
2023-05-05T18:26:43.138Z,20.61
2023-05-05T18:31:48.667Z,20.63
2023-05-05T18:36:54.502Z,20.62
2023-05-05T18:41:59.349Z,20.62
2023-05-05T18:47:03.041Z,20.62
2023-05-05T18:52:06.791Z,20.64
2023-05-05T18:57:11.659Z,20.63
2023-05-05T19:02:15.278Z,20.61
2023-05-05T19:07:31.303Z,20.63
2023-05-05T19:12:39.707Z,20.61
2023-05-05T19:17:43.358Z,20.64
2023-05-05T19:22:46.959Z,20.63
2023-05-05T19:27:51.922Z,20.63
2023-05-05T19:32:55.526Z,20.63
2023-05-05T19:37:59.104Z,20.63
2023-05-05T19:43:03.960Z,20.63
2023-05-05T19:48:08.003Z,20.63
2023-05-05T19:53:11.550Z,20.63
2023-05-05T19:58:16.431Z,20.63
2023-05-05T20:03:19.955Z,20.63
2023-05-05T20:08:23.526Z,20.63
2023-05-05T20:13:28.489Z,20.61
2023-05-05T20:18:32.107Z,20.61
2023-05-05T20:23:35.624Z,20.61
2023-05-05T20:28:43.301Z,20.61
2023-05-05T20:33:48.469Z,20.61
2023-05-05T20:38:52.179Z,20.60
2023-05-05T20:43:57.051Z,20.61
2023-05-05T20:49:00.584Z,20.61
2023-05-05T20:54:04.281Z,20.61
2023-05-05T20:59:09.290Z,20.59
2023-05-05T21:04:12.772Z,20.59
2023-05-05T21:09:16.883Z,20.60
2023-05-05T21:14:22.196Z,20.59
2023-05-05T21:19:25.662Z,20.60
2023-05-05T21:24:29.229Z,20.59
2023-05-05T21:29:37.766Z,20.60
2023-05-05T21:34:41.196Z,20.59
2023-05-05T21:39:44.866Z,20.60
2023-05-05T21:44:49.965Z,20.59
2023-05-05T21:49:53.396Z,20.59
2023-05-05T21:54:56.902Z,20.60
2023-05-05T22:00:01.836Z,20.60
2023-05-05T22:05:05.985Z,20.59
2023-05-05T22:10:10.694Z,20.58
2023-05-05T22:15:19.468Z,20.58
2023-05-05T22:20:23.037Z,20.58
2023-05-05T22:25:26.660Z,20.58
2023-05-05T22:30:31.614Z,20.59
2023-05-05T22:35:35.292Z,20.58
2023-05-05T22:40:38.782Z,20.58
2023-05-05T22:45:44.547Z,20.59
2023-05-05T22:50:48.048Z,20.58
2023-05-05T22:55:51.862Z,20.58
2023-05-05T23:00:56.770Z,20.56
2023-05-05T23:06:00.526Z,20.58
2023-05-05T23:11:03.964Z,20.57
2023-05-05T23:16:09.093Z,20.56
2023-05-05T23:21:12.524Z,20.55
2023-05-05T23:26:16.092Z,20.54
2023-05-05T23:31:20.986Z,20.54
2023-05-05T23:36:24.537Z,20.54
2023-05-05T23:41:28.045Z,20.53
2023-05-05T23:46:32.992Z,20.52
2023-05-05T23:51:36.656Z,20.53
2023-05-05T23:56:40.980Z,20.53
